createdAt,value
2023-01-10T00:10:19.947Z,63.91
2023-01-10T00:13:05.458Z,60.69
2023-01-10T00:15:33.523Z,63.20
2023-01-10T00:18:00.261Z,61.31
2023-01-10T00:20:27.120Z,62.42
2023-01-10T00:22:53.802Z,62.32
2023-01-10T00:25:21.306Z,65.01
2023-01-10T00:28:06.992Z,63.57
2023-01-10T00:30:35.304Z,57.10
2023-01-10T00:33:02.182Z,58.95
2023-01-10T00:35:28.953Z,60.20
2023-01-10T00:38:01.398Z,59.67
2023-01-10T00:40:28.171Z,59.34
2023-01-10T00:43:13.689Z,60.54
2023-01-10T00:45:40.489Z,58.76
2023-01-10T00:48:07.196Z,62.47
2023-01-10T00:50:33.970Z,64.29
2023-01-10T00:53:00.659Z,57.79
2023-01-10T00:55:28.536Z,57.35
2023-01-10T00:57:55.191Z,58.35
2023-01-10T01:00:21.918Z,58.48
2023-01-10T01:02:50.335Z,58.10
2023-01-10T01:05:18.039Z,55.74
2023-01-10T01:07:46.961Z,58.69
2023-01-10T01:10:28.914Z,58.23
2023-01-10T01:13:00.507Z,61.27
2023-01-10T01:15:27.443Z,57.81
2023-01-10T01:17:54.294Z,59.48
2023-01-10T01:20:21.877Z,58.86
2023-01-10T01:22:48.600Z,60.33
2023-01-10T01:25:15.360Z,57.26
2023-01-10T01:27:42.106Z,59.51
2023-01-10T01:30:10.346Z,55.74
2023-01-10T01:32:37.301Z,55.33
2023-01-10T01:35:05.909Z,58.24
2023-01-10T01:37:32.605Z,57.49
2023-01-10T01:39:59.696Z,55.76
2023-01-10T01:42:28.717Z,55.19
2023-01-10T01:45:08.336Z,55.76
2023-01-10T01:47:59.391Z,55.99
2023-01-10T01:50:29.236Z,54.89
2023-01-10T01:52:57.231Z,54.99
2023-01-10T01:55:24.821Z,55.66
2023-01-10T01:57:52.301Z,56.26
2023-01-10T02:00:19.562Z,56.61
2023-01-10T02:03:01.739Z,57.58
2023-01-10T02:05:29.593Z,58.90
2023-01-10T02:07:56.934Z,59.12
2023-01-10T02:10:26.177Z,57.92
2023-01-10T02:12:53.758Z,57.44
2023-01-10T02:15:20.488Z,56.06
2023-01-10T02:17:47.531Z,56.99
2023-01-10T02:20:14.409Z,57.37
2023-01-10T02:23:15.580Z,56.35
2023-01-10T02:26:09.107Z,56.42
2023-01-10T02:29:00.776Z,59.06
2023-01-10T02:32:02.508Z,56.21
2023-01-10T02:34:55.063Z,56.41
2023-01-10T02:37:41.038Z,60.42
2023-01-10T02:40:35.343Z,58.98
2023-01-10T02:43:10.416Z,58.80
2023-01-10T02:45:41.608Z,59.49
2023-01-10T02:48:08.372Z,60.10
2023-01-10T02:50:44.723Z,57.54
2023-01-10T02:53:34.155Z,55.06
2023-01-10T02:56:10.084Z,57.74
2023-01-10T02:58:39.956Z,54.53
2023-01-10T03:01:22.543Z,57.10
2023-01-10T03:03:54.720Z,58.73
2023-01-10T03:06:45.639Z,60.72
2023-01-10T03:09:16.995Z,57.90
2023-01-10T03:11:44.680Z,57.23
2023-01-10T03:14:20.272Z,58.70
2023-01-10T03:16:50.932Z,58.83
2023-01-10T03:19:20.865Z,57.67
2023-01-10T03:21:47.689Z,56.11
2023-01-10T03:24:18.424Z,58.54
2023-01-10T03:26:52.845Z,56.93
2023-01-10T03:29:24.744Z,56.25
2023-01-10T03:31:53.917Z,55.93
2023-01-10T03:34:20.946Z,58.00
2023-01-10T03:36:59.233Z,58.19
2023-01-10T03:39:38.191Z,57.01
2023-01-10T03:42:27.624Z,55.91
2023-01-10T03:45:02.178Z,55.13
2023-01-10T03:47:45.610Z,56.63
2023-01-10T03:50:16.650Z,55.18
2023-01-10T03:52:43.399Z,58.59
2023-01-10T03:55:10.938Z,57.02
2023-01-10T03:57:37.653Z,57.18
2023-01-10T04:00:05.108Z,58.03
2023-01-10T04:02:32.198Z,57.14
2023-01-10T04:04:59.211Z,59.02
2023-01-10T04:07:26.151Z,56.92
2023-01-10T04:09:52.993Z,58.77
2023-01-10T04:12:19.682Z,56.67
2023-01-10T04:14:47.242Z,59.02
2023-01-10T04:17:14.735Z,60.19
2023-01-10T04:19:42.020Z,59.98
2023-01-10T04:22:09.578Z,58.82
2023-01-10T04:24:36.277Z,56.23
2023-01-10T04:27:03.143Z,56.06
2023-01-10T04:29:29.843Z,57.63
2023-01-10T04:31:56.616Z,58.32
2023-01-10T04:34:23.331Z,59.45
2023-01-10T04:36:50.737Z,56.61
2023-01-10T04:39:17.536Z,59.09
2023-01-10T04:41:44.223Z,57.78
2023-01-10T04:44:10.975Z,57.70
2023-01-10T04:46:37.666Z,58.01
2023-01-10T04:49:04.394Z,57.16
2023-01-10T04:51:31.076Z,58.35
2023-01-10T04:53:57.790Z,57.50
2023-01-10T04:56:25.255Z,57.53
2023-01-10T04:58:53.970Z,56.47
2023-01-10T05:01:24.808Z,53.56
2023-01-10T05:03:54.044Z,55.83
2023-01-10T05:06:21.568Z,55.89
2023-01-10T05:08:48.212Z,56.51
2023-01-10T05:11:14.967Z,54.91
2023-01-10T05:13:41.695Z,55.92
2023-01-10T05:16:08.440Z,55.01
2023-01-10T05:18:35.379Z,56.11
2023-01-10T05:21:10.389Z,57.19
2023-01-10T05:23:37.868Z,56.28
2023-01-10T05:26:06.953Z,56.31
2023-01-10T05:28:34.009Z,55.58
2023-01-10T05:31:00.815Z,57.24
2023-01-10T05:33:28.227Z,57.11
2023-01-10T05:35:55.041Z,57.87
2023-01-10T05:38:21.783Z,57.57
2023-01-10T05:40:48.508Z,56.60
2023-01-10T05:43:15.265Z,56.80
2023-01-10T05:45:42.666Z,58.25
2023-01-10T05:48:09.432Z,57.74
2023-01-10T05:50:36.115Z,57.16
2023-01-10T05:53:05.870Z,58.28
2023-01-10T05:55:33.575Z,58.16
2023-01-10T05:58:00.343Z,56.14
2023-01-10T06:00:27.068Z,56.74
2023-01-10T06:02:57.455Z,58.36
2023-01-10T06:05:24.422Z,58.61
2023-01-10T06:07:51.145Z,58.58
2023-01-10T06:10:18.051Z,57.62
2023-01-10T06:12:45.010Z,57.73
2023-01-10T06:15:11.716Z,58.15
2023-01-10T06:17:38.440Z,57.93
2023-01-10T06:20:05.991Z,57.96
2023-01-10T06:22:51.302Z,58.30
2023-01-10T06:25:18.006Z,58.68
2023-01-10T06:27:44.743Z,57.71
2023-01-10T06:30:12.806Z,57.43
2023-01-10T06:32:40.545Z,57.83
2023-01-10T06:35:07.392Z,58.30
2023-01-10T06:37:34.063Z,58.66
2023-01-10T06:40:00.812Z,57.59
2023-01-10T06:42:27.592Z,58.38
2023-01-10T06:44:54.253Z,57.25
2023-01-10T06:47:20.962Z,57.53
2023-01-10T06:49:47.643Z,57.92
2023-01-10T06:52:14.355Z,58.00
2023-01-10T06:54:41.727Z,58.20
2023-01-10T06:57:08.681Z,57.78
2023-01-10T06:59:35.441Z,56.96
2023-01-10T07:02:02.302Z,56.08
2023-01-10T07:04:29.178Z,55.78
2023-01-10T07:06:55.974Z,57.19
2023-01-10T07:09:22.619Z,56.84
2023-01-10T07:11:49.289Z,57.81
2023-01-10T07:14:16.233Z,56.41
2023-01-10T07:16:43.032Z,55.84
2023-01-10T07:19:09.769Z,55.84
2023-01-10T07:21:36.468Z,57.25
2023-01-10T07:24:03.198Z,57.83
2023-01-10T07:26:30.096Z,57.92
2023-01-10T14:13:32.717Z,52.28
2023-01-10T14:15:59.609Z,47.93
2023-01-10T14:18:43.089Z,47.93
2023-01-10T14:21:09.853Z,47.98
2023-01-10T14:23:38.306Z,48.80
2023-01-10T14:26:05.017Z,47.84
2023-01-10T14:28:33.634Z,47.24
2023-01-10T14:31:08.897Z,47.14
2023-01-10T14:33:36.233Z,47.35
2023-01-10T14:36:10.405Z,47.08
2023-01-10T14:38:38.005Z,46.70
2023-01-10T14:41:29.777Z,46.54
2023-01-10T14:44:18.314Z,46.27
2023-01-10T14:46:48.255Z,45.86
2023-01-10T14:49:48.722Z,45.66
2023-01-10T14:52:24.174Z,45.29
2023-01-10T14:54:56.964Z,45.61
2023-01-10T14:57:24.078Z,45.85
2023-01-10T14:59:51.580Z,45.13
2023-01-10T15:02:23.156Z,44.80
2023-01-10T15:04:55.636Z,45.16
2023-01-10T15:07:23.859Z,44.93
2023-01-10T15:09:51.834Z,44.81
2023-01-10T15:12:20.296Z,44.82
2023-01-10T15:14:47.855Z,44.59
2023-01-10T15:17:20.068Z,44.90
2023-01-10T15:19:48.417Z,44.05
2023-01-10T15:22:38.431Z,43.85
2023-01-10T15:25:20.712Z,44.08
2023-01-10T15:27:48.789Z,43.53
2023-01-10T15:30:22.968Z,43.18
2023-01-10T15:32:50.613Z,43.11
2023-01-10T15:35:20.604Z,43.29
2023-01-10T15:37:52.622Z,42.63
2023-01-10T15:40:29.983Z,42.94
2023-01-10T15:43:18.215Z,42.86
2023-01-10T15:45:45.706Z,43.53
2023-01-10T15:48:26.374Z,43.13
2023-01-10T15:51:17.251Z,43.21
2023-01-10T15:53:55.694Z,43.09
2023-01-10T15:56:28.256Z,43.52
2023-01-10T15:58:55.041Z,43.45
2023-01-10T16:01:22.006Z,44.11
2023-01-10T16:03:51.317Z,44.62
2023-01-10T16:06:35.174Z,44.58
2023-01-10T16:09:06.067Z,45.19
2023-01-10T16:12:07.898Z,44.78
2023-01-10T16:14:34.748Z,44.06
2023-01-10T16:17:02.522Z,43.65
2023-01-10T16:19:29.327Z,43.96
2023-01-10T16:22:00.009Z,43.91
2023-01-10T16:24:31.543Z,43.23
2023-01-10T16:27:00.543Z,43.54
2023-01-10T16:29:27.225Z,43.50
2023-01-10T16:31:54.079Z,42.88
2023-01-10T16:34:21.034Z,42.58
2023-01-10T16:36:47.791Z,42.97
2023-01-10T16:39:22.010Z,43.17
2023-01-10T16:42:07.668Z,42.18
2023-01-10T16:44:34.593Z,41.86
2023-01-10T16:47:01.705Z,41.72
2023-01-10T16:49:28.498Z,41.64
2023-01-10T16:51:57.471Z,41.59
2023-01-10T16:54:25.890Z,41.42
2023-01-10T16:56:52.765Z,40.81
2023-01-10T16:59:20.528Z,40.69
2023-01-10T17:01:50.380Z,40.82
2023-01-10T17:04:30.045Z,40.89
2023-01-10T17:06:57.191Z,41.27
2023-01-10T17:09:29.217Z,41.01
2023-01-10T17:12:03.623Z,40.94
2023-01-10T17:14:37.127Z,41.63
2023-01-10T17:17:04.243Z,42.08
2023-01-10T17:19:31.312Z,41.69
2023-01-10T17:21:58.168Z,41.46
2023-01-10T17:24:24.958Z,41.63
2023-01-10T17:26:51.659Z,41.56
2023-01-10T17:29:18.470Z,41.83
2023-01-10T17:31:45.852Z,42.73
2023-01-10T17:34:12.572Z,43.13
2023-01-10T17:36:40.035Z,43.70
2023-01-10T17:39:06.921Z,44.56
2023-01-10T17:41:33.838Z,45.28
2023-01-10T17:44:00.523Z,45.63
2023-01-10T17:46:27.232Z,45.73
2023-01-10T17:48:54.148Z,46.16
2023-01-10T17:51:23.001Z,46.84
2023-01-10T17:53:49.743Z,47.60
2023-01-10T17:56:16.690Z,47.67
2023-01-10T17:58:44.350Z,48.29
2023-01-10T18:01:19.618Z,48.86
2023-01-10T18:03:46.577Z,50.04
2023-01-10T18:06:23.368Z,50.39
2023-01-10T18:08:51.376Z,50.95
2023-01-10T18:11:18.111Z,51.14
2023-01-10T18:13:44.908Z,51.47
2023-01-10T18:16:11.696Z,51.76
2023-01-10T18:18:39.281Z,51.57
2023-01-10T18:21:14.065Z,52.56
2023-01-10T18:23:40.796Z,53.03
2023-01-10T18:26:09.516Z,53.35
2023-01-10T18:28:41.757Z,53.65
2023-01-10T18:31:16.930Z,53.72
2023-01-10T18:33:45.127Z,54.29
2023-01-10T18:36:16.821Z,54.84
2023-01-10T18:38:43.835Z,54.31
2023-01-10T18:41:10.605Z,54.28
2023-01-10T18:43:37.509Z,54.84
2023-01-10T18:46:06.973Z,55.55
2023-01-10T18:48:33.744Z,56.34
2023-01-10T18:51:01.194Z,56.90
2023-01-10T18:53:29.489Z,57.00
2023-01-10T18:55:57.523Z,57.09
2023-01-10T18:58:25.611Z,57.87
2023-01-10T19:00:52.990Z,58.44
2023-01-10T19:03:19.809Z,58.93
2023-01-10T19:05:46.833Z,58.98
2023-01-10T19:08:14.249Z,58.89
2023-01-10T19:11:03.586Z,58.76
2023-01-10T19:13:31.143Z,59.33
2023-01-10T19:16:12.315Z,59.87
2023-01-10T19:18:39.724Z,60.54
2023-01-10T19:21:08.963Z,60.91
2023-01-10T19:23:35.843Z,60.45
2023-01-10T19:26:02.780Z,60.55
2023-01-10T19:28:30.024Z,61.13
2023-01-10T19:31:04.121Z,61.67
2023-01-10T19:33:35.043Z,62.12
2023-01-10T19:36:06.833Z,62.06
2023-01-10T19:38:34.192Z,62.39
2023-01-10T19:41:00.938Z,62.20
2023-01-10T19:43:27.876Z,62.58
2023-01-10T19:45:55.389Z,63.18
2023-01-10T19:48:22.568Z,62.46
2023-01-10T19:50:49.557Z,62.08
2023-01-10T19:53:16.681Z,62.55
2023-01-10T19:55:43.528Z,62.99
2023-01-10T19:58:10.470Z,64.08
2023-01-10T20:00:37.212Z,64.28
2023-01-10T20:03:05.429Z,64.10
2023-01-10T20:05:34.792Z,65.02
2023-01-10T20:08:02.354Z,67.48
2023-01-10T20:10:29.287Z,68.07
2023-01-10T20:12:56.130Z,68.49
2023-01-10T20:15:22.985Z,67.91
2023-01-10T20:17:49.915Z,66.40
2023-01-10T20:20:19.590Z,67.42
2023-01-10T20:22:47.587Z,66.70
2023-01-10T20:25:14.541Z,65.74
2023-01-10T20:27:41.307Z,66.12
2023-01-10T20:30:13.820Z,66.23
2023-01-10T20:32:40.975Z,67.36
2023-01-10T20:35:08.320Z,68.17
2023-01-10T20:37:34.985Z,66.88
2023-01-10T20:40:02.046Z,66.99
2023-01-10T20:42:28.786Z,66.59
2023-01-10T20:44:55.451Z,66.35
2023-01-10T20:47:23.499Z,66.75
2023-01-10T20:49:50.199Z,65.74
2023-01-10T20:52:17.080Z,64.83
2023-01-10T20:54:43.777Z,64.94
2023-01-10T20:57:10.464Z,65.83
2023-01-10T20:59:37.242Z,65.72
2023-01-10T21:02:04.055Z,66.05
2023-01-10T21:04:30.941Z,65.91
2023-01-10T21:06:57.728Z,65.83
2023-01-10T21:09:24.565Z,66.10
2023-01-10T21:12:04.110Z,67.02
2023-01-10T21:14:37.328Z,67.52
2023-01-10T21:17:04.141Z,66.30
2023-01-10T21:19:31.090Z,66.95
2023-01-10T21:21:57.785Z,66.95
2023-01-10T21:24:25.607Z,66.68
2023-01-10T21:26:52.310Z,65.33
2023-01-10T21:29:19.051Z,65.47
2023-01-10T21:31:45.784Z,65.75
2023-01-10T21:34:12.497Z,66.82
2023-01-10T21:36:39.188Z,66.66
2023-01-10T21:39:05.894Z,66.33
2023-01-10T21:41:51.344Z,65.75
2023-01-10T21:44:18.071Z,66.04
2023-01-10T21:46:46.769Z,66.70
2023-01-10T21:49:14.868Z,66.90
2023-01-10T21:51:41.716Z,66.78
2023-01-10T21:54:08.404Z,67.24
2023-01-10T21:56:35.112Z,67.37
2023-01-10T21:59:01.851Z,66.47
2023-01-10T22:01:28.602Z,66.55
2023-01-10T22:03:55.390Z,66.32
2023-01-10T22:06:22.356Z,65.36
2023-01-10T22:08:50.428Z,64.86
2023-01-10T22:11:17.156Z,65.11
2023-01-10T22:13:43.940Z,64.59
2023-01-10T22:16:10.844Z,64.70
2023-01-10T22:18:37.593Z,63.70
2023-01-10T22:21:04.318Z,63.54
2023-01-10T22:23:31.059Z,64.03
2023-01-10T22:26:01.742Z,64.18
2023-01-10T22:28:28.688Z,63.58
2023-01-10T22:30:55.796Z,63.78
2023-01-10T22:33:23.314Z,63.69
2023-01-10T22:35:50.056Z,63.88
2023-01-10T22:38:16.746Z,63.55
2023-01-10T22:40:43.519Z,63.17
2023-01-10T22:43:10.213Z,63.27
2023-01-10T22:45:40.961Z,63.53
2023-01-10T22:48:08.543Z,62.92
2023-01-10T22:50:35.790Z,63.23
2023-01-10T22:53:02.659Z,63.18
2023-01-10T22:55:29.398Z,63.24
2023-01-10T22:57:56.094Z,63.73
2023-01-10T23:00:22.859Z,63.76
2023-01-10T23:02:49.577Z,62.69
2023-01-10T23:05:16.424Z,62.62
2023-01-10T23:07:43.151Z,63.22
2023-01-10T23:10:28.378Z,63.32
2023-01-10T23:12:56.335Z,63.47
2023-01-10T23:15:23.015Z,62.90
2023-01-10T23:17:49.693Z,63.65
2023-01-10T23:20:17.471Z,63.82
2023-01-10T23:22:44.160Z,64.65
2023-01-10T23:25:10.869Z,64.20
2023-01-10T23:27:38.540Z,64.98
2023-01-10T23:30:09.631Z,66.26
2023-01-10T23:32:36.545Z,66.02
2023-01-10T23:35:03.702Z,67.65
2023-01-10T23:37:30.483Z,67.63
2023-01-10T23:39:57.132Z,66.49
2023-01-10T23:42:23.821Z,64.86
2023-01-10T23:44:50.562Z,64.87
2023-01-10T23:47:17.335Z,64.68
2023-01-10T23:49:44.015Z,65.28
2023-01-10T23:52:10.719Z,66.17
2023-01-10T23:54:37.454Z,64.89
2023-01-10T23:57:04.122Z,64.70
2023-01-10T23:59:30.791Z,65.61
